EA1FFA
43.31.53N 005.40.64W
IN73DM aprs.fi
zuletzt gehoert:
2021-04-23T13:32:21Z
zuerst gehoert:
2020-06-30T06:30:10Z

APRS Gijón/Xixón [IN73DM], 0 Stunde(n), EA1FFA [15:52:21, 0s].
EA1FFA 43.31.53N 005.40.64WIN73DM 0.536km 320°NW13:32:21ZMMDVM MMDVM HS Hat 438.8000/438.8000 CC1
EA1DZR 43.31.47N 005.40.00WIN73DM 0.576km 61°ENE13:34:52ZMMDVM DVMega 431.1000/431.1000 CC1
EB1TK 43.32.22N 005.42.32WIN73DM 3.102km 303°WNW13:45:17ZWind 019°/004kn, Böen bis 009kn, Temp 19.44c, Regen 0.0mm, letzte 24h 0.0mm, seit 0h 0.0mm, Baro 1016.2h, Hum: 60%(3EB1TK-13)
LEEL 43.32.98N 005.41.71WIN73DN 3.564km 330°NNW13:30:04ZHelipuerto de El Musel: LEAS 231300Z VRB02KT 9999 FEW050 22/13 Q1013 NOSIG=
ED1ZAE 43.27.97N 005.40.54WIN73DL 6.189km 182°S13:49:54ZWIDE3-3 ESAS3-3 IN73DL WWW.EA1URG.ORG(3ED1ZAE-3)
2m Voice 145.5875 -0.600 Mhz(2ED1ZAE-C)
EB1GEM 43.30.00N 005.36.07WIN73EM 6.284km 113°ESE13:51:47ZWX3in1Plus2.0 U=13.3V,T=??.?C/??.?F(3EB1GEM-3)
ED1ZAS 43.27.52N 005.40.17WIN73DL 7.024km 178°S13:35:18ZRD985 438.2250/430.6250 CC1
EA1ABW 43.24.77N 005.47.77WIN73CJ 15.675km 219°SW13:31:17ZMMDVM MMDVM HS Hat 439.8250/439.8250 CC1
LEGM 43.26.15N 005.49.84WIN73CK 15.906km 233°SW13:30:03ZHelipuerto de La Morgal: LEAS 231300Z VRB02KT 9999 FEW050 22/13 Q1013 NOSIG=
LEMR 43.25.83N 005.49.60WIN73CK 16.041km 231°SW13:30:04ZAerodromo de la Morgal: LEAS 231300Z VRB02KT 9999 FEW050 22/13 Q1013 NOSIG=
EA1FLQ 43.22.00N 005.36.35WIN73EI 18.095km 163°SSE13:33:18ZMMDVM DVMega 439.9750/439.9750 CC5
EA1AHA 43.32.72N 005.54.38WIN73BN 18.983km 278°W13:50:58ZWind 180°/001kn, Böen bis 002kn, Temp 23.33c, Regen 0.0mm, letzte 24h 0.0mm, seit 0h 0.0mm, Baro 1014.0h, Hum: 38%(3EA1AHA-13)
EA1FHR 43.28.72N 005.26.41WIN73GL 19.376km 104°ESE13:32:32ZMMDVM MMDVM HS Hat 439.1500/439.1500 CC1
LEHU 43.22.63N 005.49.57WIN73CJ 20.303km 218°SW13:30:03ZHelipuerto del HUCA: LEAS 231300Z VRB02KT 9999 FEW050 22/13 Q1013 NOSIG=
EA1IZV 43.33.25N 005.55.92WIN73AN 21.187km 280°W13:45:01ZEn proceso...
ED1ZAY 43.29.47N 005.56.54WIN73AL 21.991km 261°W13:35:22ZRD625 438.3000/430.7000 CC1
ED1ZAU 43.23.04N 005.52.75WIN73BJ 22.637km 227°SW13:35:23ZRD625 438.5000/430.9000 CC1
EA1YR 43.22.09N 005.51.86WIN73BI 23.033km 222°SW13:34:47ZMMDVM DVS 434.3500/434.3500 CC1
33D00 43.21.63N 005.51.13WIN73BI 23.049km 219°SW13:01:44Z33-D-00 Protección Civil REMER / Delegación del Gobierno en Asturias
EA1HJA 43.21.47N 005.52.09WIN73BI 24.099km 221°SW13:35:34Z IN73FL WX3IN1+ 2.0 - V=13.3V,TX TEMP=33.3C(3EA1HJA-2)
IN73FL WX3IN1+ 2.0 - V=13.9V,TX TEMP=44.3C(2EA1HJA)
EA1JAY 43.21.45N 005.52.09WIN73BI 24.133km 221°SW13:51:41ZEA1JAY(3EA1JAY-2)
EA1JAY 438.8000/438.8000 CC1(2EA1JAY)
434.525MHz Nodo TETRA DMO(2EA1JAY-4)
Mario, Oviedo. HamTETRA APRS(2EA1JAY-7)
EA1L 43.20.37N 005.51.13WIN73BI 24.897km 216°SW13:50:07Zea1l@ure.es V=11.7V,T=??.?C
Wind 000°/000kn, Böen bis 000kn, Temp 0.00c, Regen 0.0mm, letzte 24h 0.0mm, seit 0h 0.0mm, Baro 0000.0h, Hum: 0%(2EA1L-13)
EA1DHE 43.33.98N 005.58.57WIN73AN 24.922km 282°WNW13:34:48ZMMDVM DVS 434.3500/434.3500 CC1
EA1JBU 43.30.80N 005.16.20WIN73IM 32.497km 92°E13:45:19ZEA1JBU(3EA1JBU-2)
EA1JBE 43.30.90N 005.16.15WIN73IM 32.572km 91°E13:49:52ZRD625 438.3000/430.7000 CC1(3EA1JBE-2)
MAIN QTH http://qrz.com/db/ea1jbe(2EA1JBE-1)
MAIN QTH http://qrz.com/db/ea1jbe(2EA1JBE-13)
EA1IMW 43.14.36N 005.46.93WIN73CF 32.636km 196°SSW13:34:32ZGRUPO RADIO GALENA (GRG) 433.4500/433.4500 CC1
EB1DGC 43.12.60N 005.45.59WIN73CF 35.388km 191°S13:31:24ZMMDVM MMDVM HS Hat 433.4500/433.4500 CC1
EA1JBL 43.12.28N 005.47.42WIN73CE 36.513km 195°SSW13:34:14ZMMDVM DVMega 435.3000/435.3000 CC1
EA1HWA 43.12.00N 005.47.40WIN73CE 37.022km 195°SSW13:33:10ZMMDVM MMDVM HS Hat 433.4500/433.4500 CC1
EA1GS 43.23.36N 005.11.20WIN73JJ 41.914km 110°ESE13:34:15ZMMDVM MMDVM HS Hat 436.1000/436.1000 CC1
EA1RCG 43.09.45N 005.49.78WIN73CD 42.439km 197°SSW13:35:05ZGRUPO RADIO GALENA (GRG) 433.4500/433.4500 CC1
ED1ZAD 43.07.90N 005.38.52WIN73ED 43.446km 177°S13:50:10ZED1ZAD-3 APRS Digi/Igate(3ED1ZAD-3)
EC1KV 43.34.01N 006.16.01WIN63UN 48.108km 276°W13:43:35Z VOLT.=13.6 V - TEMP.=??.? C(3EC1KV-1)

aprs.pl 5.0.011w DL3EL © 2006-2021 [277485]